createdAt,value
2023-05-09T00:02:17.294Z,15.90
2023-05-09T00:04:44.135Z,16.25
2023-05-09T00:07:11.024Z,14.40
2023-05-09T00:09:37.683Z,16.08
2023-05-09T00:12:04.631Z,14.75
2023-05-09T00:14:33.640Z,15.43
2023-05-09T00:17:00.884Z,16.00
2023-05-09T00:19:27.708Z,15.02
2023-05-09T00:21:54.492Z,15.15
2023-05-09T00:24:21.191Z,15.95
2023-05-09T00:26:47.902Z,14.82
2023-05-09T00:29:14.610Z,16.02
2023-05-09T00:31:41.345Z,16.55
2023-05-09T00:34:08.028Z,16.65
2023-05-09T00:36:34.644Z,15.20
2023-05-09T00:39:01.674Z,15.75
2023-05-09T00:41:28.363Z,16.55
2023-05-09T00:43:55.073Z,14.98
2023-05-09T00:46:21.951Z,15.80
2023-05-09T00:48:48.654Z,15.05
2023-05-09T00:51:15.683Z,15.98
2023-05-09T00:53:42.443Z,16.33
2023-05-09T00:56:09.605Z,15.02
2023-05-09T00:58:36.308Z,16.15
2023-05-09T01:01:03.903Z,17.48
2023-05-09T01:03:31.415Z,16.20
2023-05-09T01:06:04.304Z,16.58
2023-05-09T01:08:57.195Z,16.20
2023-05-09T01:11:33.523Z,18.13
2023-05-09T01:14:06.283Z,16.38
2023-05-09T01:16:41.036Z,16.17
2023-05-09T01:19:27.855Z,17.33
2023-05-09T01:21:54.888Z,17.05
2023-05-09T01:24:33.783Z,18.25
2023-05-09T01:27:16.293Z,18.15
2023-05-09T01:29:45.049Z,18.25
2023-05-09T01:32:19.467Z,17.10
2023-05-09T01:34:46.760Z,19.35
2023-05-09T01:37:15.673Z,18.08
2023-05-09T01:39:45.060Z,17.92
2023-05-09T01:42:11.751Z,17.67
2023-05-09T01:44:40.000Z,17.40
2023-05-09T01:47:07.878Z,18.95
2023-05-09T01:49:36.416Z,18.75
2023-05-09T01:52:05.987Z,20.95
2023-05-09T01:54:32.881Z,19.65
2023-05-09T01:56:59.741Z,19.27
2023-05-09T01:59:27.449Z,18.98
2023-05-09T02:01:55.416Z,18.13
2023-05-09T02:04:22.243Z,19.15
2023-05-09T02:06:51.510Z,18.45
2023-05-09T02:09:19.121Z,18.08
2023-05-09T02:11:46.928Z,18.63
2023-05-09T02:14:13.995Z,19.02
2023-05-09T02:16:41.087Z,18.65
2023-05-09T02:19:07.982Z,18.10
2023-05-09T02:21:34.708Z,19.33
2023-05-09T02:24:01.386Z,18.13
2023-05-09T02:26:28.114Z,18.02
2023-05-09T02:28:56.029Z,18.33
2023-05-09T02:31:23.738Z,18.13
2023-05-09T02:33:51.496Z,17.52
2023-05-09T02:36:18.407Z,17.08
2023-05-09T02:38:45.102Z,17.02
2023-05-09T02:41:15.524Z,16.67
2023-05-09T02:43:42.262Z,16.58
2023-05-09T02:46:09.863Z,16.40
2023-05-09T02:48:36.968Z,16.83
2023-05-09T02:51:04.534Z,16.17
2023-05-09T02:53:31.353Z,17.52
2023-05-09T02:55:58.711Z,15.60
2023-05-09T02:58:25.542Z,17.33
2023-05-09T03:00:52.273Z,17.20
2023-05-09T03:03:19.315Z,17.33
2023-05-09T03:05:46.471Z,17.17
2023-05-09T03:08:13.236Z,16.55
2023-05-09T03:10:39.951Z,16.67
2023-05-09T03:13:06.738Z,16.90
2023-05-09T03:15:33.526Z,18.42
2023-05-09T03:18:00.305Z,18.83
2023-05-09T03:20:27.704Z,19.27
2023-05-09T03:22:54.489Z,18.88
2023-05-09T03:25:21.382Z,19.30
2023-05-09T03:27:48.171Z,17.73
2023-05-09T03:30:15.165Z,17.42
2023-05-09T03:32:41.933Z,17.67
2023-05-09T03:35:08.838Z,18.90
2023-05-09T03:37:35.661Z,19.42
2023-05-09T03:40:02.377Z,19.70
2023-05-09T03:42:29.074Z,19.35
2023-05-09T03:44:55.830Z,19.50
2023-05-09T03:47:22.548Z,20.38
2023-05-09T03:49:49.308Z,19.73
2023-05-09T03:52:15.992Z,21.02
2023-05-09T03:54:42.719Z,21.83
2023-05-09T03:57:09.442Z,20.92
2023-05-09T03:59:36.128Z,19.70
2023-05-09T04:02:03.306Z,21.77
2023-05-09T04:04:30.131Z,20.27
2023-05-09T04:06:56.932Z,18.63
2023-05-09T04:09:23.621Z,19.85
2023-05-09T04:11:50.433Z,18.65
2023-05-09T04:14:17.181Z,19.90
2023-05-09T04:16:43.865Z,18.98
2023-05-09T04:19:10.680Z,18.75
2023-05-09T04:21:37.792Z,19.02
2023-05-09T04:24:04.551Z,19.15
2023-05-09T04:26:31.832Z,17.02
2023-05-09T04:29:01.888Z,16.95
2023-05-09T04:31:31.982Z,17.80
2023-05-09T04:33:59.120Z,18.33
2023-05-09T04:36:27.933Z,17.38
2023-05-09T04:38:54.892Z,18.00
2023-05-09T04:41:24.873Z,18.10
2023-05-09T04:43:52.628Z,16.42
2023-05-09T04:46:29.360Z,17.08
2023-05-09T04:48:56.521Z,18.38
2023-05-09T04:51:23.453Z,18.23
2023-05-09T04:53:50.145Z,17.70
2023-05-09T04:56:17.037Z,18.55
2023-05-09T04:58:43.795Z,18.85
2023-05-09T05:01:10.556Z,18.13
2023-05-09T05:03:37.382Z,18.48
2023-05-09T05:06:04.275Z,18.27
2023-05-09T05:08:31.005Z,17.42
2023-05-09T05:10:57.713Z,19.23
2023-05-09T05:13:24.511Z,19.75
2023-05-09T05:15:51.954Z,18.55
2023-05-09T05:18:18.718Z,17.88
2023-05-09T05:20:45.357Z,18.30
2023-05-09T05:23:12.381Z,17.83
2023-05-09T05:25:39.200Z,18.27
2023-05-09T05:28:05.968Z,17.42
2023-05-09T05:30:34.371Z,18.73
2023-05-09T05:33:01.650Z,18.35
2023-05-09T05:35:29.401Z,18.00
2023-05-09T05:37:56.184Z,17.30
2023-05-09T05:40:23.013Z,18.20
2023-05-09T05:42:49.704Z,17.05
2023-05-09T05:45:16.634Z,17.40
2023-05-09T05:47:43.503Z,17.88
2023-05-09T05:50:12.141Z,17.25
2023-05-09T05:52:39.853Z,16.83
2023-05-09T05:55:06.962Z,18.58
2023-05-09T05:57:35.365Z,17.60
2023-05-09T06:00:02.841Z,18.05
2023-05-09T06:02:29.697Z,17.55
2023-05-09T06:04:56.452Z,18.58
2023-05-09T06:07:23.111Z,17.50
2023-05-09T06:09:49.781Z,17.77
2023-05-09T06:12:17.228Z,17.42
2023-05-09T06:14:43.990Z,18.15
2023-05-09T06:17:10.782Z,19.10
2023-05-09T06:19:37.890Z,16.67
2023-05-09T06:22:04.558Z,17.48
2023-05-09T06:24:35.650Z,16.52
2023-05-09T06:27:05.333Z,17.38
2023-05-09T06:29:32.135Z,18.30
2023-05-09T06:31:59.355Z,16.35
2023-05-09T06:34:26.230Z,16.42
2023-05-09T06:36:53.010Z,17.02
2023-05-09T06:39:20.276Z,16.92
2023-05-09T06:41:47.543Z,15.27
2023-05-09T06:44:14.889Z,15.85
2023-05-09T06:46:42.238Z,16.30
2023-05-09T06:49:09.395Z,16.05
2023-05-09T06:51:37.108Z,16.60
2023-05-09T06:54:04.473Z,16.00
2023-05-09T06:56:31.788Z,15.40
2023-05-09T06:58:59.096Z,16.63
2023-05-09T07:01:26.326Z,15.10
2023-05-09T07:03:53.105Z,15.82
2023-05-09T07:06:20.066Z,15.23
2023-05-09T07:08:46.868Z,16.65
2023-05-09T07:11:13.654Z,17.13
2023-05-09T07:13:40.404Z,16.35
2023-05-09T07:16:07.257Z,16.20
2023-05-09T07:18:34.098Z,17.20
2023-05-09T07:21:00.807Z,16.92
2023-05-09T07:23:27.504Z,15.75
2023-05-09T07:25:58.996Z,16.08
2023-05-09T07:28:26.314Z,15.35
2023-05-09T07:30:55.245Z,15.02
2023-05-09T07:33:21.966Z,15.05
2023-05-09T07:35:48.618Z,16.83
2023-05-09T07:38:15.398Z,15.73
2023-05-09T07:40:42.124Z,15.20
2023-05-09T07:43:08.900Z,14.13
2023-05-09T07:45:36.578Z,15.35
2023-05-09T07:48:03.421Z,14.70
2023-05-09T07:50:30.504Z,13.55
2023-05-09T07:52:57.287Z,15.45
2023-05-09T07:55:24.020Z,13.90
2023-05-09T07:57:50.906Z,12.63
2023-05-09T08:00:18.471Z,14.45
2023-05-09T08:02:45.307Z,13.50
2023-05-09T08:05:13.913Z,14.85
2023-05-09T08:07:40.852Z,15.50
2023-05-09T08:10:08.802Z,14.63
2023-05-09T08:12:35.669Z,14.10
2023-05-09T08:15:02.647Z,14.43
2023-05-09T08:17:29.423Z,14.50
2023-05-09T08:19:56.307Z,14.65
2023-05-09T08:22:23.089Z,12.52
2023-05-09T08:24:49.833Z,13.60
2023-05-09T08:27:16.781Z,12.48
2023-05-09T08:29:43.704Z,12.45
2023-05-09T08:32:10.412Z,11.38
2023-05-09T08:34:37.159Z,12.32
2023-05-09T08:37:04.531Z,12.95
2023-05-09T08:39:31.528Z,13.07
2023-05-09T08:41:59.499Z,12.32
2023-05-09T08:44:27.005Z,13.20
2023-05-09T08:46:57.005Z,12.30
2023-05-09T08:49:23.745Z,13.23
2023-05-09T08:51:50.654Z,12.77
2023-05-09T08:54:17.393Z,14.93
2023-05-09T08:56:44.113Z,11.13
2023-05-09T08:59:10.901Z,11.75
2023-05-09T09:01:37.716Z,13.18
2023-05-09T09:04:08.319Z,12.15
2023-05-09T09:06:35.824Z,12.20
2023-05-09T09:09:06.144Z,10.77
2023-05-09T09:11:33.791Z,10.52
2023-05-09T09:14:23.914Z,9.73
2023-05-09T09:16:50.616Z,9.98
2023-05-09T09:19:18.019Z,10.40
2023-05-09T09:21:47.896Z,9.23
2023-05-09T09:24:14.814Z,9.88
2023-05-09T09:26:46.614Z,8.48
2023-05-09T09:29:13.681Z,9.57
2023-05-09T09:31:41.267Z,7.95
2023-05-09T09:34:07.968Z,6.72
2023-05-09T09:36:36.804Z,6.30
2023-05-09T09:39:04.970Z,6.70
2023-05-09T09:41:38.941Z,7.10
2023-05-09T09:44:09.420Z,7.88
2023-05-09T09:46:48.514Z,7.57
2023-05-09T09:49:16.842Z,9.45
2023-05-09T09:51:44.033Z,10.15
2023-05-09T09:54:12.107Z,9.73
2023-05-09T09:56:44.077Z,9.10
2023-05-09T09:59:19.654Z,9.18
2023-05-09T10:02:07.133Z,8.88
2023-05-09T10:04:39.208Z,7.43
2023-05-09T10:07:07.487Z,7.25
2023-05-09T10:09:35.542Z,5.63
2023-05-09T10:12:04.318Z,7.72
2023-05-09T10:14:33.596Z,7.55
2023-05-09T10:17:02.962Z,6.88
2023-05-09T10:19:30.641Z,5.47
2023-05-09T10:22:03.231Z,5.90
2023-05-09T10:27:04.749Z,6.65
2023-05-09T10:29:36.924Z,7.47
2023-05-09T10:32:12.482Z,6.30
2023-05-09T10:34:40.825Z,5.70
2023-05-09T10:37:08.845Z,6.20
2023-05-09T10:39:36.165Z,5.68
2023-05-09T10:42:03.417Z,5.95
2023-05-09T10:44:30.126Z,5.53
2023-05-09T10:46:56.866Z,5.18
2023-05-09T10:49:23.694Z,4.88
2023-05-09T10:51:53.686Z,4.65
2023-05-09T10:54:30.067Z,5.07
2023-05-09T10:56:58.117Z,4.78
2023-05-09T10:59:35.852Z,4.60
2023-05-09T11:02:05.421Z,6.25
2023-05-09T11:04:32.800Z,4.82
2023-05-09T11:07:00.583Z,6.38
2023-05-09T11:09:28.656Z,4.90
2023-05-09T11:12:09.050Z,4.63
2023-05-09T11:14:35.749Z,4.30
2023-05-09T11:17:04.378Z,4.78
2023-05-09T11:19:38.476Z,5.18
2023-05-09T11:22:19.933Z,4.40
2023-05-09T11:24:50.962Z,4.78
2023-05-09T11:27:22.445Z,3.97
2023-05-09T11:29:54.536Z,4.38
2023-05-09T11:32:22.516Z,3.88
2023-05-09T11:34:49.578Z,4.30
2023-05-09T11:37:17.933Z,4.07
2023-05-09T11:40:00.750Z,5.32
2023-05-09T11:42:31.298Z,4.32
2023-05-09T11:44:58.770Z,4.25
2023-05-09T11:47:26.510Z,4.43
2023-05-09T11:49:53.409Z,4.15
2023-05-09T11:52:21.054Z,4.70
2023-05-09T11:54:48.747Z,4.90
2023-05-09T11:57:19.489Z,4.40
2023-05-09T11:59:46.417Z,4.55
2023-05-09T12:02:13.666Z,5.18
2023-05-09T12:04:40.509Z,5.78
2023-05-09T12:07:07.503Z,4.05
2023-05-09T12:09:35.170Z,4.60
2023-05-09T12:12:02.112Z,4.15
2023-05-09T12:14:38.128Z,4.45
2023-05-09T12:17:08.333Z,5.15
2023-05-09T12:19:35.595Z,4.70
2023-05-09T12:22:03.951Z,4.75
2023-05-09T12:24:31.466Z,4.47
2023-05-09T12:27:01.671Z,5.57
2023-05-09T12:29:28.415Z,4.07
2023-05-09T12:31:55.209Z,4.20
2023-05-09T12:34:22.067Z,4.78
2023-05-09T12:36:51.071Z,3.95
2023-05-09T12:39:19.591Z,4.43
2023-05-09T12:41:57.361Z,4.85
2023-05-09T12:44:30.048Z,4.88
2023-05-09T12:46:58.773Z,4.47
2023-05-09T12:49:26.217Z,4.50
2023-05-09T12:51:53.770Z,4.88
2023-05-09T12:54:22.584Z,4.90
2023-05-09T12:56:52.206Z,4.05
2023-05-09T12:59:27.539Z,3.65
2023-05-09T13:01:59.160Z,3.53
2023-05-09T13:04:27.770Z,2.83
2023-05-09T13:06:56.220Z,3.53
2023-05-09T13:09:24.131Z,3.42
2023-05-09T13:11:51.879Z,3.63
2023-05-09T13:14:19.791Z,3.45
2023-05-09T13:16:46.636Z,3.42
2023-05-09T13:19:13.564Z,3.70
2023-05-09T13:21:40.352Z,3.00
2023-05-09T13:24:07.260Z,3.25
2023-05-09T13:26:34.246Z,3.05
2023-05-09T13:29:01.039Z,3.03
2023-05-09T13:31:27.908Z,2.78
2023-05-09T13:33:54.684Z,3.88
2023-05-09T13:36:21.502Z,3.05
2023-05-09T13:38:48.317Z,2.55
2023-05-09T13:41:20.433Z,2.90
2023-05-09T13:43:47.299Z,2.80
2023-05-09T13:46:14.206Z,2.97
2023-05-09T13:48:42.002Z,2.63
2023-05-09T13:51:08.913Z,2.95
2023-05-09T13:53:38.118Z,3.00
2023-05-09T13:56:07.483Z,2.83
2023-05-09T13:58:34.300Z,2.50
2023-05-09T14:01:01.089Z,2.85
2023-05-09T14:03:27.927Z,2.47
2023-05-09T14:05:54.810Z,2.15
2023-05-09T14:08:21.557Z,4.75
2023-05-09T14:10:48.304Z,3.45
2023-05-09T14:13:15.869Z,3.00
2023-05-09T14:15:42.705Z,2.85
2023-05-09T14:18:09.562Z,5.90
2023-05-09T14:20:37.756Z,6.55
2023-05-09T14:23:04.615Z,2.72
2023-05-09T14:25:31.812Z,1.80
2023-05-09T14:27:59.567Z,2.30
2023-05-09T14:30:26.817Z,2.33
2023-05-09T14:32:53.690Z,1.70
2023-05-09T14:35:20.442Z,1.88
2023-05-09T14:37:47.362Z,1.52
2023-05-09T14:40:14.928Z,1.70
2023-05-09T14:42:42.355Z,1.67
2023-05-09T14:45:12.262Z,1.80
2023-05-09T14:47:39.091Z,1.30
2023-05-09T14:50:07.454Z,2.72
2023-05-09T14:52:34.281Z,2.03
2023-05-09T14:55:01.169Z,1.90
2023-05-09T14:57:28.390Z,2.00
2023-05-09T14:59:58.917Z,2.00
2023-05-09T15:02:29.974Z,2.17
2023-05-09T15:04:56.827Z,1.85
2023-05-09T15:07:24.025Z,1.30
2023-05-09T15:09:51.051Z,1.10
2023-05-09T15:12:17.906Z,1.58
2023-05-09T15:14:44.740Z,1.10
2023-05-09T15:17:11.592Z,0.88
2023-05-09T15:19:38.653Z,1.05
2023-05-09T15:22:06.359Z,0.75
2023-05-09T15:24:33.172Z,1.00
2023-05-09T15:27:00.203Z,1.13
2023-05-09T15:29:27.282Z,1.42
2023-05-09T15:31:55.724Z,1.35
2023-05-09T15:34:23.067Z,2.00
2023-05-09T15:36:50.081Z,1.38
2023-05-09T15:39:17.063Z,1.35
2023-05-09T15:41:43.885Z,1.50
2023-05-09T15:44:10.742Z,1.60
2023-05-09T15:46:38.033Z,2.03
2023-05-09T15:49:05.051Z,2.25
2023-05-09T15:51:31.950Z,2.15
2023-05-09T15:53:58.753Z,2.45
2023-05-09T15:56:25.867Z,2.15
2023-05-09T15:58:52.577Z,2.55
2023-05-09T16:01:19.339Z,2.80
2023-05-09T16:03:46.568Z,2.72
2023-05-09T16:06:13.566Z,2.78
2023-05-09T16:08:40.275Z,2.95
2023-05-09T16:11:07.998Z,3.10
2023-05-09T16:13:36.069Z,2.83
2023-05-09T16:16:03.239Z,3.20
2023-05-09T16:18:30.131Z,3.20
2023-05-09T16:20:56.949Z,3.53
2023-05-09T16:23:24.193Z,3.33
2023-05-09T16:25:50.972Z,3.40
2023-05-09T16:28:19.560Z,3.67
2023-05-09T16:30:46.444Z,4.30
2023-05-09T16:33:13.392Z,3.40
2023-05-09T16:35:40.207Z,3.50
2023-05-09T16:38:07.097Z,3.13
2023-05-09T16:40:34.228Z,3.55
2023-05-09T16:43:00.907Z,3.45
2023-05-09T16:45:27.766Z,3.20
2023-05-09T16:47:55.862Z,3.25
2023-05-09T16:50:23.032Z,3.30
2023-05-09T16:52:50.197Z,3.75
2023-05-09T16:55:17.093Z,4.03
2023-05-09T16:57:43.880Z,4.00
2023-05-09T17:00:11.093Z,3.80
2023-05-09T17:02:37.799Z,3.80
2023-05-09T17:05:04.873Z,4.05
2023-05-09T17:07:32.374Z,4.22
2023-05-09T17:09:59.298Z,4.57
2023-05-09T17:12:27.629Z,4.18
2023-05-09T17:14:54.541Z,4.82
2023-05-09T17:17:21.384Z,4.57
2023-05-09T17:19:48.584Z,4.20
2023-05-09T17:22:15.352Z,4.20
2023-05-09T17:24:42.298Z,4.75
2023-05-09T17:27:10.943Z,4.10
2023-05-09T17:29:37.766Z,4.00
2023-05-09T17:32:05.046Z,4.78
2023-05-09T17:34:32.504Z,3.92
2023-05-09T17:37:02.500Z,5.95
2023-05-09T17:39:29.417Z,3.72
2023-05-09T17:41:56.474Z,3.03
2023-05-09T17:44:24.026Z,2.90
2023-05-09T17:46:51.220Z,3.50
2023-05-09T17:49:18.552Z,3.63
2023-05-09T17:51:45.441Z,3.70
2023-05-09T17:54:13.058Z,4.35
2023-05-09T17:56:40.109Z,4.85
2023-05-09T17:59:08.047Z,4.57
2023-05-09T18:01:35.244Z,4.78
2023-05-09T18:04:02.288Z,4.88
2023-05-09T18:06:30.464Z,4.97
2023-05-09T18:08:57.712Z,4.68
2023-05-09T18:11:24.933Z,5.32
2023-05-09T18:13:57.304Z,3.38
2023-05-09T18:16:24.260Z,3.30
2023-05-09T18:18:51.157Z,2.97
2023-05-09T18:21:18.315Z,3.20
2023-05-09T18:23:45.187Z,2.85
2023-05-09T18:26:12.102Z,2.58
2023-05-09T18:28:41.590Z,3.03
2023-05-09T18:31:13.232Z,2.90
2023-05-09T18:33:40.450Z,3.33
2023-05-09T18:36:11.563Z,3.10
2023-05-09T18:38:38.889Z,3.50
2023-05-09T18:41:07.042Z,3.72
2023-05-09T18:43:34.428Z,3.45
2023-05-09T18:46:03.408Z,3.58
2023-05-09T18:48:30.488Z,3.65
2023-05-09T18:50:57.541Z,3.65
2023-05-09T18:53:27.127Z,3.63
2023-05-09T18:55:53.890Z,3.63
2023-05-09T18:58:21.409Z,3.55
2023-05-09T19:00:49.691Z,3.33
2023-05-09T19:03:17.015Z,3.40
2023-05-09T19:05:46.157Z,2.80
2023-05-09T19:08:17.175Z,2.92
2023-05-09T19:10:44.334Z,2.80
2023-05-09T19:13:18.563Z,2.78
2023-05-09T19:15:49.988Z,3.10
2023-05-09T19:18:17.848Z,2.90
2023-05-09T19:20:45.630Z,2.63
2023-05-09T19:23:12.514Z,3.00
2023-05-09T19:25:39.214Z,3.03
2023-05-09T19:28:06.446Z,2.95
2023-05-09T19:30:33.588Z,3.13
2023-05-09T19:33:00.523Z,2.97
2023-05-09T19:35:27.561Z,2.75
2023-05-09T19:37:54.365Z,3.10
2023-05-09T19:40:21.701Z,2.90
2023-05-09T19:42:48.860Z,3.20
2023-05-09T19:45:16.030Z,2.63
2023-05-09T19:47:43.002Z,3.22
2023-05-09T19:50:10.402Z,3.50
2023-05-09T19:52:37.336Z,3.72
2023-05-09T19:55:06.037Z,4.03
2023-05-09T19:57:33.367Z,3.70
2023-05-09T20:00:00.302Z,3.35
2023-05-09T20:02:27.260Z,3.20
2023-05-09T20:04:54.511Z,2.95
2023-05-09T20:07:21.341Z,3.00
2023-05-09T20:09:48.663Z,3.30
2023-05-09T20:12:15.693Z,3.40
2023-05-09T20:14:42.465Z,3.53
2023-05-09T20:17:09.180Z,3.42
2023-05-09T20:19:36.145Z,3.58
2023-05-09T20:22:03.838Z,3.45
2023-05-09T20:24:33.968Z,3.28
2023-05-09T20:27:02.388Z,3.45
2023-05-09T20:29:29.343Z,3.15
2023-05-09T20:31:56.270Z,3.95
2023-05-09T20:34:24.779Z,3.10
2023-05-09T20:36:53.914Z,3.15
2023-05-09T20:39:21.211Z,2.97
2023-05-09T20:41:48.935Z,3.13
2023-05-09T20:44:16.234Z,3.70
2023-05-09T20:46:43.702Z,3.50
2023-05-09T20:49:10.548Z,4.10
2023-05-09T20:51:38.225Z,4.13
2023-05-09T20:54:05.047Z,4.22
2023-05-09T20:56:33.437Z,3.90
2023-05-09T20:59:01.148Z,3.85
2023-05-09T21:01:27.969Z,3.88
2023-05-09T21:03:54.766Z,4.03
2023-05-09T21:06:21.600Z,3.85
2023-05-09T21:08:48.368Z,3.83
2023-05-09T21:11:15.171Z,3.60
2023-05-09T21:13:41.895Z,4.10
2023-05-09T21:16:08.685Z,3.92
2023-05-09T21:18:35.416Z,4.00
2023-05-09T21:21:02.882Z,3.67
2023-05-09T21:23:29.569Z,3.78
2023-05-09T21:25:56.231Z,3.28
2023-05-09T21:28:22.928Z,3.60
2023-05-09T21:30:53.533Z,3.40
2023-05-09T21:33:20.888Z,3.25
2023-05-09T21:35:47.632Z,3.10
2023-05-09T21:38:14.385Z,2.85
2023-05-09T21:40:41.368Z,3.20
2023-05-09T21:43:08.182Z,2.67
2023-05-09T21:45:34.898Z,2.65
2023-05-09T21:48:01.805Z,2.75
2023-05-09T21:50:28.557Z,2.10
2023-05-09T21:52:56.396Z,2.10
2023-05-09T21:55:23.352Z,1.98
2023-05-09T21:57:50.069Z,2.10
2023-05-09T22:00:17.413Z,2.00
2023-05-09T22:02:44.495Z,1.60
2023-05-09T22:05:11.707Z,1.52
2023-05-09T22:07:38.744Z,1.40
2023-05-09T22:10:06.071Z,2.28
2023-05-09T22:12:32.803Z,2.20
2023-05-09T22:14:59.521Z,2.63
2023-05-09T22:17:26.235Z,2.40
2023-05-09T22:19:52.948Z,2.85
2023-05-09T22:22:19.648Z,2.85
2023-05-09T22:24:46.375Z,2.80
2023-05-09T22:27:13.045Z,2.90
2023-05-09T22:29:39.772Z,2.80
2023-05-09T22:32:08.382Z,3.08
2023-05-09T22:34:35.535Z,3.00
2023-05-09T22:37:02.212Z,3.40
2023-05-09T22:39:29.533Z,3.17
2023-05-09T22:41:56.399Z,2.78
2023-05-09T22:44:23.190Z,3.50
2023-05-09T22:46:49.891Z,3.30
2023-05-09T22:49:16.632Z,3.30
2023-05-09T22:51:43.452Z,2.97
2023-05-09T22:54:10.162Z,2.63
2023-05-09T22:56:36.860Z,3.72
2023-05-09T22:59:03.536Z,3.13
2023-05-09T23:01:30.280Z,2.80
2023-05-09T23:03:56.970Z,2.25
2023-05-09T23:06:23.708Z,2.28
2023-05-09T23:08:50.545Z,2.53
2023-05-09T23:11:17.207Z,2.20
2023-05-09T23:13:43.851Z,2.50
2023-05-09T23:16:10.611Z,1.90
2023-05-09T23:18:37.347Z,1.58
2023-05-09T23:21:05.047Z,1.10
2023-05-09T23:23:31.704Z,1.20
2023-05-09T23:25:58.496Z,1.10
2023-05-09T23:28:25.439Z,1.30
2023-05-09T23:30:53.760Z,0.90
2023-05-09T23:33:20.589Z,1.25
2023-05-09T23:35:48.065Z,1.20
2023-05-09T23:38:14.789Z,1.10
2023-05-09T23:40:44.804Z,1.20
2023-05-09T23:43:12.083Z,1.13
2023-05-09T23:45:38.933Z,0.90
2023-05-09T23:48:05.902Z,0.93
2023-05-09T23:50:32.664Z,1.20
2023-05-09T23:52:59.432Z,1.30
2023-05-09T23:55:26.105Z,1.33
2023-05-09T23:57:52.829Z,1.33
